TOP weather

Philip Billard Municipal Airport
Topeka, Kansas, United States

Public forecast

Using degrees Fahrenheit for public forecast. Weather courtesy of forecast.io.

METAR (pilot weather report)

Retrieved 2019/08/24 07:53 UTC (58 minutes ago):

KTOP 240753Z AUTO 08007KT 10SM CLR 22/18 A3006 RMK AO2 SLP172 T02170183

TAF (pilot weather forecast)

Retrieved 2019/08/24 06:22 UTC (2 hours ago):

TAF KTOP 240520Z 2406/2506 10006KT P6SM SCT030 BKN200 FM241000 10005KT P6SM VCSH SCT019 BKN025 FM241900 11008KT P6SM BKN035